Clarkson Valley, Missouri
Current Conditions -  °F | °C
As of 1:54 AM on Tuesday 21 Oct 2014 (Local Time) from KSUS Reporting Station
Clear Clear  
Wind Chill:   Ceiling: Unl
Heat Index:   Visibility: 10mi
Dew Point:   Wind: 0mph
Humidity: 93%   Direction: NA
Pressure: 30.03"   Gusts: NA
Location:  38.6517°N, 90.5361°W
Report Text: KSUS 210654Z 00000KT 10SM CLR 08/07 A3003 RMK AO2 SLP167 T00780067
Loading
Personal Weather Stations






























Interactive Weather Map
Tropical Storm Tracking
New forecast layout! Learn more

10-Day Weather Forecast

Advertisements
Track Severe Weather on mobile